createdAt,value
2018-09-06T03:58:01.074Z,56.40
2018-09-06T04:08:05.720Z,56.40
2018-09-06T04:18:10.380Z,56.40
2018-09-06T04:28:15.313Z,56.40
2018-09-06T04:38:19.867Z,56.40
2018-09-06T04:48:24.477Z,56.40
2018-09-06T04:58:30.326Z,56.40
2018-09-06T05:08:34.911Z,56.40
2018-09-06T05:18:39.757Z,56.40
2018-09-06T05:28:44.561Z,56.50
2018-09-06T05:38:49.153Z,56.50
2018-09-06T05:48:53.774Z,56.50
2018-09-06T05:58:59.696Z,56.40
2018-09-06T06:09:05.002Z,56.50
2018-09-06T06:19:09.792Z,56.40
2018-09-06T06:29:14.393Z,56.50
2018-09-06T06:39:19.072Z,56.40
2018-09-06T06:49:23.696Z,56.50
2018-09-06T06:59:28.374Z,56.40
2018-09-06T07:09:32.947Z,56.50
2018-09-06T07:19:37.643Z,56.50
2018-09-06T07:29:42.320Z,56.50
2018-09-06T07:39:46.920Z,56.60
2018-09-06T07:49:51.588Z,56.60
2018-09-06T07:59:56.205Z,56.60
2018-09-06T08:10:00.812Z,56.60
2018-09-06T08:20:05.415Z,56.60
2018-09-06T08:30:10.086Z,56.60
2018-09-06T08:40:14.724Z,56.60
2018-09-06T08:50:19.326Z,56.70
2018-09-06T09:00:23.996Z,56.60
2018-09-06T09:10:28.808Z,56.70
2018-09-06T09:20:33.538Z,56.60
2018-09-06T09:30:38.377Z,56.60
2018-09-06T09:40:42.991Z,57.30
2018-09-06T10:00:51.461Z,56.70
2018-09-06T10:10:56.264Z,56.80
2018-09-06T10:21:00.961Z,56.90
2018-09-06T10:31:05.595Z,56.90
2018-09-06T10:41:10.302Z,56.80
2018-09-06T10:51:14.889Z,56.80
2018-09-06T11:01:21.464Z,56.70
2018-09-06T11:11:26.036Z,56.70
2018-09-06T11:21:30.822Z,56.80
2018-09-06T11:31:35.529Z,56.80
2018-09-06T11:41:40.316Z,56.70
2018-09-06T11:51:45.216Z,57.40
2018-09-06T12:01:49.851Z,56.80
2018-09-06T12:11:54.623Z,56.90
2018-09-06T12:21:59.401Z,57.00
2018-09-06T12:32:04.067Z,57.00
2018-09-06T12:42:08.688Z,57.00
2018-09-06T12:52:13.316Z,56.90
2018-09-06T13:02:17.819Z,56.90
2018-09-06T13:12:22.445Z,56.90
2018-09-06T13:22:27.130Z,56.80
2018-09-06T13:32:31.795Z,56.80
2018-09-06T13:42:36.443Z,56.90
2018-09-06T13:52:41.100Z,56.80
2018-09-06T14:02:45.659Z,56.80
2018-09-06T14:12:50.264Z,56.70
2018-09-06T14:22:54.814Z,56.70
2018-09-06T14:32:59.487Z,56.70
2018-09-06T14:43:04.501Z,56.70
2018-09-06T14:53:09.170Z,56.60
2018-09-06T15:03:13.731Z,56.60
2018-09-06T15:13:18.803Z,56.60
2018-09-06T15:23:23.663Z,56.50
2018-09-06T15:33:28.234Z,56.60
2018-09-06T15:43:32.927Z,56.60
2018-09-06T15:53:37.705Z,56.50
2018-09-06T16:03:42.401Z,56.30
2018-09-06T16:13:47.961Z,56.50
2018-09-06T16:23:52.807Z,56.50
2018-09-06T16:33:57.354Z,56.50
2018-09-06T16:44:02.029Z,56.50
2018-09-06T16:54:06.662Z,56.60
2018-09-06T17:04:11.346Z,56.50
